Time;durP1;ratioP1;P1;durP2;ratioP2;P2;SDS_P1;SDS_P2;PMS_P1;PMS_P2;Temp;Humidity;BMP_temperature;BMP_pressure;BME280_temperature;BME280_humidity;BME280_pressure;Samples;Min_cycle;Max_cycle;Signal;HPM_P1;HPM_P2
2023/02/18 00:01:52;;;;;;;0.10;0.10;;;;;;;13.31;70.42;101013.53;7358889;19;20026;-57
2023/02/18 00:04:18;;;;;;;0.08;0.08;;;;;;;13.32;70.64;101031.00;7355671;19;20684;-58
2023/02/18 00:06:43;;;;;;;0.00;0.00;;;;;;;13.30;70.34;101016.22;7358304;19;20002;-57
2023/02/18 00:09:09;;;;;;;0.00;0.00;;;;;;;13.23;70.44;101005.06;7360187;19;20022;-57
2023/02/18 00:11:36;;;;;;;0.10;0.10;;;;;;;13.25;70.85;101000.59;7357462;19;20010;-57
2023/02/18 00:14:04;;;;;;;0.00;0.00;;;;;;;13.22;70.69;101012.03;7354028;19;20006;-58
2023/02/18 00:16:30;;;;;;;;;;;;;;;13.21;70.26;100991.97;7355755;19;20447;-58
2023/02/18 00:19:05;;;;;;;0.00;0.00;;;;;;;13.17;71.07;100995.53;7354910;19;19921;-57
2023/02/18 00:21:33;;;;;;;0.03;0.03;;;;;;;13.12;71.40;100997.44;7358530;19;20014;-57
2023/02/18 00:23:58;;;;;;;0.00;0.00;;;;;;;13.08;71.74;101001.06;7357240;19;20879;-58
2023/02/18 00:26:24;;;;;;;0.00;0.00;;;;;;;13.04;71.94;101004.66;7346820;19;20018;-58
2023/02/18 00:28:50;;;;;;;0.10;0.10;;;;;;;13.01;71.95;100994.25;7344626;19;20414;-57
2023/02/18 00:31:25;;;;;;;0.00;0.00;;;;;;;13.01;71.72;101036.22;7344820;19;20017;-58
2023/02/18 00:33:50;;;;;;;0.00;0.00;;;;;;;12.91;71.39;100980.53;7341918;19;20029;-58
2023/02/18 00:36:18;;;;;;;0.00;0.00;;;;;;;12.93;71.87;100985.78;7348345;19;20121;-58
2023/02/18 00:38:47;;;;;;;0.10;0.10;;;;;;;12.82;72.20;100988.66;7345577;19;20014;-57
2023/02/18 00:41:13;;;;;;;0.00;0.00;;;;;;;12.92;72.50;100989.25;7346977;19;20002;-58
2023/02/18 00:43:38;;;;;;;0.10;0.10;;;;;;;12.90;72.48;100996.31;7347585;19;20024;-58
2023/02/18 00:46:05;;;;;;;0.10;0.10;;;;;;;12.68;72.70;100965.47;7349275;19;20007;-58
2023/02/18 00:48:30;;;;;;;0.05;0.05;;;;;;;12.87;72.75;100991.16;7354417;19;20603;-57
2023/02/18 00:50:55;;;;;;;0.10;0.10;;;;;;;12.89;72.65;101015.59;7352268;19;20007;-57
2023/02/18 00:53:21;;;;;;;0.00;0.00;;;;;;;12.84;73.03;100986.88;7353262;19;20553;-57
2023/02/18 00:55:47;;;;;;;0.00;0.00;;;;;;;12.86;73.32;100992.91;7354420;19;20014;-57
2023/02/18 00:58:13;;;;;;;0.00;0.00;;;;;;;12.86;72.85;100978.97;7352701;19;20006;-58
2023/02/18 01:00:38;;;;;;;0.10;0.10;;;;;;;12.83;73.28;100985.16;7355240;19;20108;-57
2023/02/18 01:03:06;;;;;;;0.00;0.00;;;;;;;12.87;73.53;100980.66;7356606;19;20576;-58
2023/02/18 01:05:32;;;;;;;0.00;0.00;;;;;;;12.87;73.49;100972.81;7356711;19;20038;-57
2023/02/18 01:07:57;;;;;;;0.00;0.00;;;;;;;12.86;73.33;100976.34;7355657;19;20526;-58
2023/02/18 01:10:22;;;;;;;0.00;0.00;;;;;;;12.85;73.64;100972.00;7353605;19;20018;-58
2023/02/18 01:12:48;;;;;;;0.00;0.00;;;;;;;12.83;73.53;100969.44;7346910;19;20045;-58
2023/02/18 01:15:15;;;;;;;0.10;0.10;;;;;;;12.85;73.53;100966.75;7354734;19;20019;-58
2023/02/18 01:17:40;;;;;;;0.00;0.00;;;;;;;12.85;73.69;100967.63;7353906;19;22750;-57
2023/02/18 01:20:07;;;;;;;0.00;0.00;;;;;;;12.83;73.75;100964.19;7356198;19;20018;-58
2023/02/18 01:22:32;;;;;;;0.05;0.05;;;;;;;12.86;74.14;100968.47;7355468;19;20482;-59
2023/02/18 01:24:58;;;;;;;0.00;0.00;;;;;;;12.76;74.09;100959.16;7355562;19;20010;-58
2023/02/18 01:27:23;;;;;;;0.00;0.00;;;;;;;12.87;74.28;100965.81;7353149;19;20023;-58
2023/02/18 01:29:49;;;;;;;0.10;0.10;;;;;;;12.87;74.61;100971.03;7360581;19;20010;-58
2023/02/18 01:32:14;;;;;;;0.10;0.10;;;;;;;12.89;74.43;100964.00;7362621;19;20494;-57
2023/02/18 01:34:40;;;;;;;0.00;0.00;;;;;;;12.92;74.56;100963.06;7350886;19;20017;-58
2023/02/18 01:37:05;;;;;;;0.10;0.10;;;;;;;12.76;74.62;100930.31;7354101;19;20748;-58
2023/02/18 01:39:30;;;;;;;0.10;0.10;;;;;;;12.96;75.06;100959.44;7357339;19;20615;-58
2023/02/18 01:41:56;;;;;;;0.10;0.10;;;;;;;13.00;74.89;100982.06;7359529;19;20018;-57
2023/02/18 01:44:25;;;;;;;0.10;0.10;;;;;;;13.04;75.03;100960.09;7359338;19;20031;-57
2023/02/18 01:46:51;;;;;;;0.10;0.10;;;;;;;13.05;75.35;100947.84;7358144;19;20031;-58
2023/02/18 01:49:24;;;;;;;0.10;0.10;;;;;;;13.04;75.34;100973.22;7359612;19;20461;-57
2023/02/18 01:52:18;;;;;;;0.00;0.00;;;;;;;13.07;75.59;100962.63;7363534;19;20364;-58
2023/02/18 01:54:50;;;;;;;0.00;0.00;;;;;;;13.09;75.83;100963.44;7259316;19;2004428;-58
2023/02/18 01:57:36;;;;;;;0.00;0.00;;;;;;;13.09;75.32;100965.22;7358661;19;20017;-58
2023/02/18 02:00:14;;;;;;;0.05;0.05;;;;;;;13.07;75.91;100967.00;7358058;19;20117;-58
2023/02/18 02:02:44;;;;;;;0.10;0.10;;;;;;;13.06;75.98;100963.53;7359987;19;20084;-58
2023/02/18 02:05:11;;;;;;;0.00;0.00;;;;;;;13.06;76.16;100950.41;7360082;19;20038;-57
2023/02/18 02:07:40;;;;;;;0.00;0.00;;;;;;;13.06;76.14;100979.25;7355289;19;20582;-58
2023/02/18 02:10:07;;;;;;;0.10;0.10;;;;;;;13.05;76.33;100961.81;7361036;19;20010;-58
2023/02/18 02:12:59;;;;;;;0.10;0.10;;;;;;;13.10;76.29;100966.94;7358577;19;20538;-58
2023/02/18 02:15:57;;;;;;;0.10;0.10;;;;;;;13.10;76.33;100972.16;7360231;19;20021;-58
2023/02/18 02:18:38;;;;;;;0.10;0.10;;;;;;;13.09;76.36;100967.84;7257555;19;2004324;-57
2023/02/18 02:21:16;;;;;;;0.10;0.10;;;;;;;13.06;76.67;100963.53;7360511;19;20082;-57
2023/02/18 02:24:06;;;;;;;;;;;;;;;13.09;75.88;100966.06;7361500;19;20479;-58
2023/02/18 02:26:53;;;;;;;0.00;0.00;;;;;;;13.09;76.03;100971.31;7359650;19;19918;-56
2023/02/18 02:29:25;;;;;;;0.10;0.10;;;;;;;13.08;76.27;100974.84;7359361;19;20014;-57
2023/02/18 02:32:01;;;;;;;0.00;0.00;;;;;;;13.07;76.55;100990.59;7360609;19;20010;-57
2023/02/18 02:34:51;;;;;;;0.10;0.10;;;;;;;13.06;77.00;100971.41;7356740;19;20030;-58
2023/02/18 02:37:35;;;;;;;0.10;0.10;;;;;;;13.06;77.05;100976.63;7358559;19;20497;-58
2023/02/18 02:40:27;;;;;;;0.10;0.10;;;;;;;13.04;77.02;100962.72;7355078;19;20022;-59
2023/02/18 02:43:23;;;;;;;0.10;0.10;;;;;;;13.06;77.12;100958.28;7258057;19;2004462;-58
2023/02/18 02:46:20;;;;;;;0.10;0.10;;;;;;;13.09;77.34;100960.84;7252904;19;2004531;-59
2023/02/18 02:48:50;;;;;;;;;;;;;;;13.09;76.70;100970.47;7258355;19;2004383;-59
2023/02/18 02:51:29;;;;;;;0.00;0.00;;;;;;;13.01;77.09;100981.16;7357467;19;20793;-59
2023/02/18 02:54:07;;;;;;;0.00;0.00;;;;;;;13.06;77.25;100981.88;7356766;19;20017;-59
2023/02/18 02:56:32;;;;;;;0.03;0.03;;;;;;;13.06;77.43;100966.16;7356151;19;20513;-59
2023/02/18 02:59:05;;;;;;;0.00;0.00;;;;;;;13.08;77.75;100985.34;7345747;19;20020;-58
2023/02/18 03:02:07;;;;;;;0.00;0.00;;;;;;;13.11;77.85;100987.84;7355954;19;20366;-59
2023/02/18 03:04:48;;;;;;;0.10;0.10;;;;;;;13.11;77.62;100985.22;7255891;19;2004346;-58
2023/02/18 03:07:36;;;;;;;0.10;0.10;;;;;;;13.12;77.26;100976.44;7354520;19;20019;-59
2023/02/18 03:10:21;;;;;;;0.10;0.10;;;;;;;13.13;77.46;101014.91;7357269;19;20014;-59
2023/02/18 03:13:28;;;;;;;0.05;0.05;;;;;;;13.17;77.19;100979.81;7357282;19;20022;-59
2023/02/18 03:16:18;;;;;;;0.05;0.05;;;;;;;13.14;76.58;101005.28;7255594;19;2004204;-59
2023/02/18 03:19:21;;;;;;;0.10;0.10;;;;;;;13.12;76.63;101021.03;7357101;19;20738;-59
2023/02/18 03:21:52;;;;;;;0.00;0.00;;;;;;;13.11;76.42;101008.81;7253280;19;2004616;-58
2023/02/18 03:24:29;;;;;;;0.00;0.00;;;;;;;13.06;76.30;101007.25;7355521;19;20010;-58
2023/02/18 03:27:13;;;;;;;0.00;0.00;;;;;;;13.03;76.11;101002.97;7355638;19;20010;-58
2023/02/18 03:29:42;;;;;;;0.00;0.00;;;;;;;12.81;76.00;100973.84;7355903;19;20023;-59
2023/02/18 03:32:11;;;;;;;0.00;0.00;;;;;;;12.99;75.90;101025.78;7353606;19;20018;-58
2023/02/18 03:34:41;;;;;;;0.00;0.00;;;;;;;12.97;75.82;101003.97;7351184;19;20677;-59
2023/02/18 03:37:08;;;;;;;0.00;0.00;;;;;;;12.95;75.58;101010.16;7355026;19;20375;-58
2023/02/18 03:39:35;;;;;;;0.00;0.00;;;;;;;12.92;75.38;101005.84;7348355;19;20017;-58
2023/02/18 03:42:01;;;;;;;0.00;0.00;;;;;;;12.80;75.14;100984.38;7355614;19;20437;-58
2023/02/18 03:44:26;;;;;;;0.00;0.00;;;;;;;12.84;75.04;101001.75;7352014;19;20028;-59
2023/02/18 03:46:52;;;;;;;0.10;0.10;;;;;;;12.83;74.82;100994.78;7353637;19;20010;-58
2023/02/18 03:49:17;;;;;;;0.00;0.00;;;;;;;12.79;74.87;101001.00;7352781;19;20027;-59
2023/02/18 03:51:43;;;;;;;0.00;0.00;;;;;;;12.75;75.09;100996.75;7356888;19;20488;-59
2023/02/18 03:54:09;;;;;;;0.08;0.08;;;;;;;12.73;75.16;100974.06;7356939;19;20006;-58
2023/02/18 03:56:36;;;;;;;0.00;0.00;;;;;;;12.70;74.89;101007.34;7352021;19;20526;-58
2023/02/18 03:59:02;;;;;;;0.00;0.00;;;;;;;12.67;74.74;100999.56;7354805;19;21565;-59
2023/02/18 04:01:27;;;;;;;0.00;0.00;;;;;;;12.66;75.01;101003.94;7355082;19;20015;-59
2023/02/18 04:03:54;;;;;;;0.00;0.00;;;;;;;12.64;74.85;100994.41;7347875;19;20090;-59
2023/02/18 04:06:20;;;;;;;0.10;0.10;;;;;;;12.59;74.81;100991.91;7327985;19;20027;-59
2023/02/18 04:08:46;;;;;;;0.10;0.10;;;;;;;12.62;74.42;100983.97;7357307;19;20002;-59
2023/02/18 04:11:11;;;;;;;0.10;0.10;;;;;;;12.59;75.00;100991.91;7353949;19;20011;-58
2023/02/18 04:13:37;;;;;;;0.03;0.03;;;;;;;12.44;75.04;100932.06;7354269;19;20400;-58
2023/02/18 04:16:03;;;;;;;0.00;0.00;;;;;;;12.57;74.99;101004.19;7354543;19;20011;-58
2023/02/18 04:18:28;;;;;;;0.08;0.08;;;;;;;12.58;74.83;101011.16;7354916;19;20019;-58
2023/02/18 04:20:53;;;;;;;0.00;0.00;;;;;;;12.56;74.53;101018.19;7333801;19;20077;-58
2023/02/18 04:23:19;;;;;;;0.05;0.05;;;;;;;12.58;74.83;101010.28;7357819;19;20560;-58
2023/02/18 04:25:44;;;;;;;0.10;0.10;;;;;;;12.54;74.89;101009.50;7352353;19;20040;-59
2023/02/18 04:28:12;;;;;;;0.10;0.10;;;;;;;12.55;74.51;100997.28;7354368;19;20039;-58
2023/02/18 04:30:38;;;;;;;0.00;0.00;;;;;;;12.53;74.60;100996.47;7355381;19;20011;-58
2023/02/18 04:33:04;;;;;;;0.00;0.00;;;;;;;12.53;74.67;101006.94;7356898;19;20783;-58
2023/02/18 04:35:29;;;;;;;0.00;0.00;;;;;;;12.55;74.19;100995.50;7354972;19;20010;-58
2023/02/18 04:37:54;;;;;;;0.10;0.10;;;;;;;12.52;74.23;101005.19;7353597;19;20010;-58
2023/02/18 04:40:20;;;;;;;0.10;0.10;;;;;;;12.49;73.88;101006.16;7355797;19;20028;-57
2023/02/18 04:42:45;;;;;;;0.00;0.00;;;;;;;12.47;74.25;101018.44;7357203;19;20015;-58
2023/02/18 04:45:11;;;;;;;0.00;0.00;;;;;;;12.44;74.00;101019.34;7355706;19;20014;-58
2023/02/18 04:47:36;;;;;;;0.00;0.00;;;;;;;12.24;73.95;101005.03;7356677;19;20006;-57
2023/02/18 04:50:02;;;;;;;0.00;0.00;;;;;;;12.33;73.96;101041.50;7355951;19;20680;-58
2023/02/18 04:52:28;;;;;;;0.00;0.00;;;;;;;12.23;74.07;101011.19;7356022;19;20431;-57
2023/02/18 04:54:53;;;;;;;0.00;0.00;;;;;;;12.30;74.03;101037.16;7351744;19;20031;-58
2023/02/18 04:57:18;;;;;;;0.00;0.00;;;;;;;12.32;74.00;101039.78;7354928;19;20007;-58
2023/02/18 04:59:44;;;;;;;0.00;0.00;;;;;;;12.29;73.95;101042.44;7355082;19;20316;-58
2023/02/18 05:02:09;;;;;;;0.10;0.10;;;;;;;12.29;74.18;101030.22;7355465;19;20015;-58
2023/02/18 05:04:35;;;;;;;0.00;0.00;;;;;;;12.28;74.06;101044.22;7354780;19;20032;-58
2023/02/18 05:07:00;;;;;;;0.08;0.08;;;;;;;12.29;74.00;101056.41;7353858;19;20082;-58
2023/02/18 05:09:26;;;;;;;0.10;0.10;;;;;;;12.28;74.12;101032.88;7352506;19;20037;-59
2023/02/18 05:11:51;;;;;;;0.00;0.00;;;;;;;12.30;73.98;101036.31;7354736;19;20016;-57
2023/02/18 05:14:17;;;;;;;0.00;0.00;;;;;;;12.31;73.94;101033.66;7354232;19;20007;-58
2023/02/18 05:16:43;;;;;;;0.05;0.05;;;;;;;11.94;73.77;100976.09;7355723;19;20373;-58
2023/02/18 05:19:12;;;;;;;0.00;0.00;;;;;;;12.24;73.78;101031.22;7345378;19;20029;-58
2023/02/18 05:21:38;;;;;;;0.00;0.00;;;;;;;12.28;73.36;101017.16;7351870;19;20018;-58
2023/02/18 05:24:04;;;;;;;0.10;0.10;;;;;;;12.19;73.58;101013.88;7348462;19;20515;-59
2023/02/18 05:26:29;;;;;;;0.00;0.00;;;;;;;12.29;73.67;101024.13;7352764;19;20014;-58
2023/02/18 05:28:56;;;;;;;0.00;0.00;;;;;;;12.27;73.34;101020.69;7353984;19;20010;-59
2023/02/18 05:31:21;;;;;;;0.10;0.10;;;;;;;12.06;73.67;100981.03;7353730;19;20039;-58
2023/02/18 05:33:47;;;;;;;0.00;0.00;;;;;;;12.13;73.18;100993.06;7353661;19;21336;-58
2023/02/18 05:36:12;;;;;;;0.00;0.00;;;;;;;12.26;73.41;101016.31;7352648;19;20025;-58
2023/02/18 05:38:37;;;;;;;0.00;0.00;;;;;;;12.16;73.05;101003.47;7355712;19;20355;-59
2023/02/18 05:41:03;;;;;;;0.00;0.00;;;;;;;12.22;73.08;101001.63;7348440;19;20010;-59
2023/02/18 05:43:29;;;;;;;0.08;0.08;;;;;;;12.00;73.36;100975.94;7354998;19;20025;-58
2023/02/18 05:45:54;;;;;;;0.00;0.00;;;;;;;12.15;73.24;101000.88;7349822;19;20010;-58
2023/02/18 05:48:20;;;;;;;0.00;0.00;;;;;;;12.15;73.05;101003.50;7353279;19;20483;-58
2023/02/18 05:50:45;;;;;;;0.10;0.10;;;;;;;12.12;73.75;101017.53;7351785;19;20010;-57
2023/02/18 05:53:10;;;;;;;0.00;0.00;;;;;;;12.10;73.20;101008.84;7354637;19;20428;-58
2023/02/18 05:55:37;;;;;;;0.00;0.00;;;;;;;12.10;73.37;101008.84;7354057;19;20010;-59
2023/02/18 05:58:04;;;;;;;0.00;0.00;;;;;;;12.06;73.37;101012.44;7354197;19;20030;-59
2023/02/18 06:00:30;;;;;;;0.00;0.00;;;;;;;12.06;73.45;101009.81;7352289;19;20007;-58
2023/02/18 06:02:56;;;;;;;0.00;0.00;;;;;;;12.02;73.29;101008.19;7355103;19;20733;-58
2023/02/18 06:05:22;;;;;;;0.10;0.10;;;;;;;12.04;73.53;101018.63;7353323;19;20018;-58
2023/02/18 06:07:47;;;;;;;0.00;0.00;;;;;;;12.02;73.15;101005.56;7351645;19;20034;-58
2023/02/18 06:10:13;;;;;;;0.03;0.03;;;;;;;12.01;73.50;101016.06;7351791;19;20608;-58
2023/02/18 06:12:38;;;;;;;0.00;0.00;;;;;;;11.54;73.64;100937.75;7351693;19;20581;-58
2023/02/18 06:15:04;;;;;;;0.03;0.03;;;;;;;11.98;73.61;101010.91;7354154;19;20490;-57
2023/02/18 06:17:30;;;;;;;0.10;0.10;;;;;;;11.96;73.31;101016.16;7357977;19;20015;-57
2023/02/18 06:19:55;;;;;;;0.00;0.00;;;;;;;11.95;73.32;101017.91;7360588;19;20007;-58
2023/02/18 06:22:21;;;;;;;0.00;0.00;;;;;;;11.93;73.35;101000.56;7358125;19;20043;-58
2023/02/18 06:24:46;;;;;;;0.00;0.00;;;;;;;11.94;73.17;100999.66;7356697;19;20823;-59
2023/02/18 06:27:12;;;;;;;0.00;0.00;;;;;;;11.93;73.35;101024.09;7360031;19;20010;-58
2023/02/18 06:29:37;;;;;;;0.00;0.00;;;;;;;11.95;73.50;101014.44;7361120;19;20030;-57
2023/02/18 06:32:03;;;;;;;0.00;0.00;;;;;;;11.98;73.50;101030.09;7361214;19;20014;-57
2023/02/18 06:34:28;;;;;;;0.00;0.00;;;;;;;11.89;73.38;101020.69;7358312;19;21531;-58
2023/02/18 06:36:54;;;;;;;0.10;0.10;;;;;;;12.04;73.75;101029.94;7358426;19;20021;-58
2023/02/18 06:39:19;;;;;;;0.10;0.10;;;;;;;12.06;73.52;101033.38;7355980;19;20002;-58
2023/02/18 06:41:44;;;;;;;0.08;0.08;;;;;;;11.99;73.86;101020.47;7361740;19;20027;-58
2023/02/18 06:44:10;;;;;;;0.05;0.05;;;;;;;12.05;73.90;101047.34;7357899;19;20666;-58
2023/02/18 06:46:36;;;;;;;0.00;0.00;;;;;;;11.95;74.08;101031.00;7358071;19;20007;-58
2023/02/18 06:49:02;;;;;;;0.03;0.03;;;;;;;12.12;73.93;101038.50;7360034;19;20049;-58
2023/02/18 06:51:27;;;;;;;0.00;0.00;;;;;;;12.07;74.53;101035.13;7358053;19;20006;-59
2023/02/18 06:53:53;;;;;;;0.10;0.10;;;;;;;12.10;74.29;101044.63;7358576;19;20031;-59
2023/02/18 06:56:18;;;;;;;0.00;0.00;;;;;;;12.01;74.11;101030.00;7352543;19;20408;-58
2023/02/18 06:58:44;;;;;;;0.10;0.10;;;;;;;11.99;74.05;101023.09;7346764;19;20546;-58
2023/02/18 07:01:09;;;;;;;0.10;0.10;;;;;;;12.05;74.18;101043.88;7358284;19;20014;-58
2023/02/18 07:03:34;;;;;;;0.00;0.00;;;;;;;12.02;74.41;101043.97;7355525;19;20010;-57
2023/02/18 07:06:00;;;;;;;0.00;0.00;;;;;;;11.99;74.43;101042.28;7357084;19;20014;-58
2023/02/18 07:08:25;;;;;;;0.10;0.10;;;;;;;11.97;74.27;101057.16;7359096;19;20391;-58
2023/02/18 07:10:51;;;;;;;0.00;0.00;;;;;;;11.92;74.11;101059.03;7355968;19;20010;-58
2023/02/18 07:13:16;;;;;;;0.00;0.00;;;;;;;11.90;74.53;101063.41;7359435;19;20010;-58
2023/02/18 07:15:42;;;;;;;0.00;0.00;;;;;;;11.48;74.51;101008.50;7356110;19;20022;-58
2023/02/18 07:18:07;;;;;;;0.10;0.10;;;;;;;11.75;74.13;101068.94;7356390;19;20695;-58
2023/02/18 07:20:33;;;;;;;0.00;0.00;;;;;;;11.82;74.54;101078.44;7353758;19;20106;-57
2023/02/18 07:22:58;;;;;;;0.00;0.00;;;;;;;11.80;74.59;101090.66;7357726;19;20023;-58
2023/02/18 07:25:24;;;;;;;0.00;0.00;;;;;;;11.80;74.29;101088.88;7352921;19;20048;-58
2023/02/18 07:27:51;;;;;;;0.00;0.00;;;;;;;11.70;74.27;101077.75;7355432;19;20049;-58
2023/02/18 07:30:17;;;;;;;0.00;0.00;;;;;;;11.74;74.24;101096.88;7353227;19;20517;-58
2023/02/18 07:32:43;;;;;;;0.00;0.00;;;;;;;11.73;74.70;101083.84;7358264;19;20783;-58
2023/02/18 07:35:12;;;;;;;0.00;0.00;;;;;;;11.78;74.12;101100.28;7350685;19;20006;-59
2023/02/18 07:37:37;;;;;;;0.00;0.00;;;;;;;11.69;74.22;101099.59;7345790;19;20177;-58
2023/02/18 07:40:03;;;;;;;0.00;0.00;;;;;;;11.66;74.44;101097.06;7354838;19;20105;-58
2023/02/18 07:42:28;;;;;;;0.00;0.00;;;;;;;11.78;74.28;101111.63;7356102;19;20003;-57
2023/02/18 07:44:53;;;;;;;0.00;0.00;;;;;;;11.76;74.42;101107.28;7358372;19;20025;-58
2023/02/18 07:47:19;;;;;;;0.00;0.00;;;;;;;11.75;74.58;101111.66;7355028;19;20010;-58
2023/02/18 07:49:45;;;;;;;0.08;0.08;;;;;;;11.60;74.50;101091.91;7352719;19;20007;-58
2023/02/18 07:52:11;;;;;;;0.00;0.00;;;;;;;11.77;74.41;101098.59;7351837;19;20037;-58
2023/02/18 07:54:37;;;;;;;0.00;0.00;;;;;;;11.75;74.57;101119.53;7356263;19;20428;-58
2023/02/18 07:57:03;;;;;;;0.00;0.00;;;;;;;11.80;74.34;101125.53;7353467;19;20010;-58
2023/02/18 07:59:28;;;;;;;0.00;0.00;;;;;;;11.73;74.24;101123.09;7356162;19;20013;-58
2023/02/18 08:01:54;;;;;;;0.00;0.00;;;;;;;11.63;74.24;101102.34;7349769;19;20034;-58
2023/02/18 08:04:19;;;;;;;0.10;0.10;;;;;;;11.86;74.12;101140.25;7357585;19;20011;-58
2023/02/18 08:06:47;;;;;;;0.10;0.10;;;;;;;11.90;74.66;101144.53;7350892;19;20014;-58
2023/02/18 08:09:13;;;;;;;0.10;0.10;;;;;;;11.78;74.50;101134.31;7356419;19;20018;-58
2023/02/18 08:11:39;;;;;;;0.10;0.10;;;;;;;11.92;74.41;101146.25;7357147;19;20518;-57
2023/02/18 08:14:05;;;;;;;0.00;0.00;;;;;;;11.97;74.11;101159.25;7355017;19;20020;-58
2023/02/18 08:16:30;;;;;;;0.10;0.10;;;;;;;12.01;74.46;101154.78;7354510;19;20016;-58
2023/02/18 08:18:56;;;;;;;0.10;0.10;;;;;;;12.03;74.36;101159.09;7351982;19;20406;-58
2023/02/18 08:21:23;;;;;;;0.10;0.10;;;;;;;12.06;74.46;101156.41;7353594;19;20033;-58
2023/02/18 08:23:49;;;;;;;0.00;0.00;;;;;;;11.97;74.25;101143.53;7352981;19;20757;-58
2023/02/18 08:26:15;;;;;;;0.00;0.00;;;;;;;12.13;74.05;101167.63;7353883;19;20015;-57
2023/02/18 08:28:42;;;;;;;0.00;0.00;;;;;;;12.17;73.82;101154.44;7355051;19;20010;-58
2023/02/18 08:31:18;;;;;;;0.00;0.00;;;;;;;12.18;74.06;101163.16;7355036;19;20045;-58
2023/02/18 08:33:44;;;;;;;0.00;0.00;;;;;;;12.15;74.12;101156.22;7355023;19;20003;-57
2023/02/18 08:36:09;;;;;;;0.10;0.10;;;;;;;12.13;73.79;101155.41;7355273;19;21300;-57
2023/02/18 08:38:35;;;;;;;0.05;0.05;;;;;;;11.82;73.83;101107.22;7344274;19;20064;-58
2023/02/18 08:41:05;;;;;;;0.08;0.08;;;;;;;12.26;74.36;101174.28;7335577;19;20138;-57
2023/02/18 08:43:31;;;;;;;0.00;0.00;;;;;;;12.06;74.16;101153.78;7343210;19;20010;-58
2023/02/18 08:45:57;;;;;;;0.00;0.00;;;;;;;12.27;74.35;101183.03;7351067;19;20014;-57
2023/02/18 08:48:23;;;;;;;0.10;0.10;;;;;;;12.12;74.30;101164.16;7348633;19;20014;-58
2023/02/18 08:50:48;;;;;;;0.10;0.10;;;;;;;12.32;74.05;101202.13;7351875;19;20025;-58
2023/02/18 08:53:14;;;;;;;0.10;0.10;;;;;;;12.30;73.90;101196.06;7348162;19;20015;-58
2023/02/18 08:55:40;;;;;;;0.10;0.10;;;;;;;12.34;73.93;101190.72;7352784;19;20039;-57
2023/02/18 08:58:05;;;;;;;0.00;0.00;;;;;;;12.38;73.62;101207.22;7349159;19;20006;-57
2023/02/18 09:00:31;;;;;;;0.10;0.10;;;;;;;12.39;73.62;101201.09;7354308;19;20017;-58
2023/02/18 09:02:56;;;;;;;0.10;0.10;;;;;;;12.41;73.76;101217.63;7352894;19;20011;-58
2023/02/18 09:05:22;;;;;;;0.10;0.10;;;;;;;12.46;73.51;101215.75;7353725;19;20014;-58
2023/02/18 09:07:47;;;;;;;0.10;0.10;;;;;;;12.46;73.48;101219.25;7353936;19;20541;-57
2023/02/18 09:10:13;;;;;;;0.03;0.03;;;;;;;12.47;73.25;101217.50;7353738;19;20014;-58
2023/02/18 09:12:38;;;;;;;0.00;0.00;;;;;;;12.51;73.06;101213.91;7350891;19;20010;-58
2023/02/18 09:15:04;;;;;;;0.00;0.00;;;;;;;12.53;73.03;101217.38;7348326;19;20037;-58
2023/02/18 09:17:29;;;;;;;0.10;0.10;;;;;;;12.57;72.85;101208.53;7355073;19;20720;-59
2023/02/18 09:19:55;;;;;;;0.00;0.00;;;;;;;12.61;72.92;101215.41;7355348;19;20011;-58
2023/02/18 09:22:20;;;;;;;0.10;0.10;;;;;;;12.63;73.00;101210.16;7349655;19;20010;-58
2023/02/18 09:24:46;;;;;;;0.08;0.08;;;;;;;12.64;73.70;101215.34;7355079;19;20022;-58
2023/02/18 09:27:11;;;;;;;0.10;0.10;;;;;;;12.76;73.85;101224.69;7354538;19;20030;-59
2023/02/18 09:29:38;;;;;;;0.00;0.00;;;;;;;12.80;73.44;101215.00;7346583;19;20014;-58
2023/02/18 09:32:05;;;;;;;0.10;0.10;;;;;;;13.02;73.34;101226.69;7353896;19;20047;-58
2023/02/18 09:34:31;;;;;;;0.08;0.08;;;;;;;13.03;72.25;101228.44;7352682;19;20018;-58
2023/02/18 09:36:56;;;;;;;0.00;0.00;;;;;;;13.12;72.21;101232.56;7348660;19;20750;-58
2023/02/18 09:39:22;;;;;;;0.08;0.08;;;;;;;12.99;72.22;101211.91;7349523;19;20039;-58
2023/02/18 09:41:55;;;;;;;0.00;0.00;;;;;;;13.12;72.17;101222.94;7346083;19;20056;-58
2023/02/18 09:45:01;;;;;;;0.00;0.00;;;;;;;13.15;72.27;101228.13;7350923;19;20090;-58
2023/02/18 09:47:35;;;;;;;0.10;0.10;;;;;;;13.14;72.21;101241.28;7244193;19;2005345;-57
2023/02/18 09:50:20;;;;;;;0.03;0.03;;;;;;;13.16;72.18;101245.56;7350986;19;20038;-58
2023/02/18 09:52:46;;;;;;;0.00;0.00;;;;;;;13.04;72.09;101234.53;7335424;19;20027;-58
2023/02/18 09:55:26;;;;;;;0.10;0.10;;;;;;;13.19;71.83;101244.66;7358700;19;20014;-58
2023/02/18 09:57:55;;;;;;;0.00;0.00;;;;;;;12.85;71.64;101186.91;7358905;19;20351;-57
2023/02/18 10:00:26;;;;;;;0.05;0.05;;;;;;;13.22;72.05;101245.44;7359517;19;20011;-58
2023/02/18 10:02:58;;;;;;;0.10;0.10;;;;;;;13.22;71.61;101255.94;7357086;19;20009;-59
2023/02/18 10:05:26;;;;;;;0.00;0.00;;;;;;;13.23;71.75;101244.56;7359491;19;20043;-59
2023/02/18 10:07:57;;;;;;;0.10;0.10;;;;;;;13.26;71.99;101250.63;7360516;19;20014;-58
2023/02/18 10:10:35;;;;;;;0.10;0.10;;;;;;;13.24;72.15;101248.91;7362204;19;20002;-58
2023/02/18 10:13:02;;;;;;;0.00;0.00;;;;;;;13.27;72.24;101258.44;7352186;19;20625;-58
2023/02/18 10:15:30;;;;;;;0.10;0.10;;;;;;;13.29;72.06;101268.91;7358980;19;20097;-58
2023/02/18 10:17:57;;;;;;;0.00;0.00;;;;;;;13.30;72.10;101261.00;7350930;19;20014;-57
2023/02/18 10:20:26;;;;;;;0.00;0.00;;;;;;;13.31;71.54;101254.00;7361133;19;20082;-58
2023/02/18 10:22:54;;;;;;;0.10;0.10;;;;;;;13.27;72.13;101253.19;7358157;19;20014;-58
2023/02/18 10:25:23;;;;;;;0.00;0.00;;;;;;;13.22;71.94;101231.47;7356609;19;20022;-58
2023/02/18 10:27:50;;;;;;;0.08;0.08;;;;;;;13.27;71.82;101239.22;7355549;19;20017;-58
2023/02/18 10:30:16;;;;;;;0.05;0.05;;;;;;;13.36;71.81;101258.22;7359621;19;20980;-57
2023/02/18 10:32:45;;;;;;;0.00;0.00;;;;;;;13.38;71.67;101266.03;7360450;19;20022;-58
2023/02/18 10:35:33;;;;;;;0.10;0.10;;;;;;;13.43;71.78;101254.56;7357462;19;20486;-58
2023/02/18 10:38:01;;;;;;;0.10;0.10;;;;;;;13.44;71.66;101264.16;7253873;19;2004894;-58
2023/02/18 10:40:32;;;;;;;0.00;0.00;;;;;;;13.48;71.26;101251.78;7355504;19;20466;-58
2023/02/18 10:43:12;;;;;;;0.00;0.00;;;;;;;13.54;71.45;101251.66;7350384;19;20039;-58
2023/02/18 10:45:44;;;;;;;0.10;0.10;;;;;;;13.59;71.90;101265.50;7354038;19;20009;-58
2023/02/18 10:48:22;;;;;;;0.00;0.00;;;;;;;13.68;71.79;101260.00;7356023;19;20010;-58
2023/02/18 10:50:48;;;;;;;0.00;0.00;;;;;;;13.76;71.43;101262.44;7357085;19;20014;-58
2023/02/18 10:53:20;;;;;;;0.10;0.10;;;;;;;13.87;70.51;101259.50;7355053;19;20127;-60
2023/02/18 10:55:48;;;;;;;0.10;0.10;;;;;;;13.93;70.76;101259.34;7359294;19;20017;-58
2023/02/18 10:58:24;;;;;;;0.10;0.10;;;;;;;14.01;70.56;101258.22;7360387;19;20571;-58
2023/02/18 11:00:49;;;;;;;0.10;0.10;;;;;;;14.02;69.97;101254.69;7357291;19;20077;-58
2023/02/18 11:03:18;;;;;;;0.10;0.10;;;;;;;14.09;70.19;101254.50;7360132;19;20136;-58
2023/02/18 11:05:46;;;;;;;0.05;0.05;;;;;;;14.15;70.24;101249.97;7355276;19;20014;-59
2023/02/18 11:08:24;;;;;;;0.00;0.00;;;;;;;14.26;70.61;101257.53;7359270;19;20006;-58
2023/02/18 11:10:50;;;;;;;0.05;0.05;;;;;;;14.27;69.89;101254.84;7351082;19;21029;-58
2023/02/18 11:13:36;;;;;;;0.00;0.00;;;;;;;14.40;70.11;101244.84;7351480;19;20420;-58
2023/02/18 11:16:05;;;;;;;0.00;0.00;;;;;;;14.44;69.06;101238.56;7258481;19;2004200;-59
2023/02/18 11:18:45;;;;;;;0.00;0.00;;;;;;;14.43;68.66;101230.75;7358632;19;20015;-59
2023/02/18 11:21:30;;;;;;;0.05;0.05;;;;;;;14.52;68.60;101228.75;7361759;19;20023;-58
2023/02/18 11:24:04;;;;;;;0.10;0.10;;;;;;;14.50;68.38;101224.47;7355108;19;20039;-58
2023/02/18 11:26:33;;;;;;;0.10;0.10;;;;;;;14.57;68.53;101233.84;7360473;19;20566;-58
2023/02/18 11:29:07;;;;;;;0.00;0.00;;;;;;;14.62;67.82;101225.84;7356392;19;20013;-58
2023/02/18 11:31:45;;;;;;;0.10;0.10;;;;;;;14.69;67.95;101229.97;7360695;19;20006;-58
2023/02/18 11:34:17;;;;;;;0.10;0.10;;;;;;;14.69;67.55;101235.25;7358916;19;20010;-58